createdAt,value
2018-06-03T02:23:21.354Z,0.00
2018-06-03T02:24:30.264Z,0.00
2018-06-03T02:25:21.870Z,0.00
2018-06-03T02:26:21.877Z,0.00
2018-06-03T02:27:22.050Z,0.00
2018-06-03T02:28:22.230Z,0.00
2018-06-03T02:29:22.484Z,0.00
2018-06-03T02:30:22.728Z,0.00
2018-06-03T02:31:22.963Z,4.00
2018-06-03T02:32:23.222Z,4.00
2018-06-03T02:33:23.458Z,0.00
2018-06-03T02:34:23.679Z,0.00
2018-06-03T02:35:23.937Z,4.00
2018-06-03T02:36:24.160Z,4.00
2018-06-03T02:37:24.390Z,4.00
2018-06-03T02:38:24.603Z,4.00
2018-06-03T02:39:24.840Z,8.00
2018-06-03T02:40:25.074Z,4.00
2018-06-03T02:41:25.347Z,8.00
2018-06-03T02:42:25.574Z,8.00
2018-06-03T02:43:25.809Z,12.00
2018-06-03T02:44:26.036Z,12.00
2018-06-03T02:45:35.265Z,12.00
2018-06-03T02:46:26.819Z,12.00
2018-06-03T02:47:26.946Z,16.00
2018-06-03T02:48:27.191Z,20.00
2018-06-03T02:49:27.398Z,24.00
2018-06-03T02:50:27.635Z,20.00
2018-06-03T02:51:27.871Z,24.00
2018-06-03T02:52:36.861Z,28.00
2018-06-03T02:53:28.588Z,32.00
2018-06-03T02:54:36.614Z,36.00
2018-06-03T02:55:29.241Z,36.00
2018-06-03T02:56:38.157Z,44.00
2018-06-03T02:57:29.862Z,48.00
2018-06-03T02:58:39.800Z,52.00
2018-06-03T02:59:30.301Z,64.00
2018-06-03T03:00:39.306Z,68.00
2018-06-03T03:01:31.047Z,76.00
2018-06-03T03:02:39.948Z,80.00
2018-06-03T03:03:31.783Z,84.00
2018-06-03T03:04:40.786Z,88.00
2018-06-03T03:05:32.293Z,92.00
2018-06-03T03:06:32.490Z,100.00
2018-06-03T03:07:32.717Z,104.00
2018-06-03T03:08:32.985Z,108.00
2018-06-03T03:09:41.960Z,116.00
2018-06-03T03:10:42.567Z,116.00
2018-06-03T03:11:33.922Z,128.00
2018-06-03T03:12:34.124Z,136.00
2018-06-03T03:13:34.332Z,144.00
2018-06-03T03:14:44.356Z,156.00
2018-06-03T03:15:34.882Z,164.00
2018-06-03T03:16:43.763Z,180.00
2018-06-03T03:17:43.314Z,188.00
2018-06-03T03:18:44.567Z,200.00
2018-06-03T03:19:44.793Z,212.00
2018-06-03T03:20:36.434Z,220.00
2018-06-03T03:21:46.509Z,232.00
2018-06-03T03:22:36.907Z,248.00
2018-06-03T03:23:45.837Z,260.00
2018-06-03T03:24:46.356Z,272.00
2018-06-03T03:25:46.510Z,284.00
2018-06-03T03:26:38.170Z,296.00
2018-06-03T03:27:47.190Z,308.00
2018-06-03T03:28:47.501Z,320.00
2018-06-03T03:29:46.889Z,332.00
2018-06-03T03:30:39.559Z,348.00
2018-06-03T03:31:48.558Z,356.00
2018-06-03T03:32:40.125Z,376.00
2018-06-03T03:33:49.012Z,400.00
2018-06-03T03:34:40.869Z,432.00
2018-06-03T03:35:49.884Z,456.00
2018-06-03T03:36:41.228Z,476.00
2018-06-03T03:37:50.275Z,484.00
2018-06-03T03:38:50.598Z,500.00
2018-06-03T03:39:51.065Z,524.00
2018-06-03T03:40:51.192Z,560.00
2018-06-03T03:41:51.542Z,592.00
2018-06-03T03:42:43.256Z,636.00
2018-06-03T03:43:43.531Z,672.00
2018-06-03T03:44:43.682Z,704.00
2018-06-03T03:45:53.686Z,732.00
2018-06-03T03:46:44.207Z,752.00
2018-06-03T03:47:53.201Z,768.00
2018-06-03T03:48:44.991Z,792.00
2018-06-03T03:49:45.029Z,824.00
2018-06-03T03:50:45.271Z,868.00
2018-06-03T03:51:54.223Z,920.00
2018-06-03T03:52:54.633Z,980.00
2018-06-03T03:53:55.191Z,1040.00
2018-06-03T03:54:55.406Z,1100.00
2018-06-03T03:55:56.889Z,1164.00
2018-06-03T03:56:54.050Z,1240.00
2018-06-03T03:57:47.608Z,1300.00
2018-06-03T03:58:56.890Z,1344.00
2018-06-03T03:59:57.060Z,1364.00
2018-06-03T04:00:48.433Z,1376.00
2018-06-03T04:01:57.427Z,1384.00
2018-06-03T04:02:58.697Z,1404.00
2018-06-03T04:03:49.170Z,1412.00
2018-06-03T04:04:49.383Z,1432.00
2018-06-03T04:05:58.291Z,1464.00
2018-06-03T04:06:59.777Z,1480.00
2018-06-03T04:07:50.339Z,1504.00
2018-06-03T04:08:50.569Z,1524.00
2018-06-03T04:09:59.485Z,1548.00
2018-06-03T04:10:51.166Z,1580.00
2018-06-03T04:11:51.330Z,1644.00
2018-06-03T04:13:00.264Z,1716.00
2018-06-03T04:13:52.072Z,1796.00
2018-06-03T04:14:52.168Z,1892.00
2018-06-03T04:15:52.373Z,1988.00
2018-06-03T04:17:01.332Z,2088.00
2018-06-03T04:17:53.189Z,2188.00
2018-06-03T04:18:53.329Z,2264.00
2018-06-03T04:20:02.368Z,2332.00
2018-06-03T04:20:54.111Z,2368.00
2018-06-03T04:21:54.183Z,2404.00
2018-06-03T04:23:03.319Z,2460.00
2018-06-03T04:24:03.597Z,2528.00
2018-06-03T04:24:55.033Z,2620.00
2018-06-03T04:25:55.322Z,2716.00
2018-06-03T04:26:55.433Z,2788.00
2018-06-03T04:28:05.590Z,2848.00
2018-06-03T04:28:56.041Z,2900.00
2018-06-03T04:29:56.204Z,2940.00
2018-06-03T04:30:56.436Z,2984.00
2018-06-03T04:31:56.664Z,3028.00
2018-06-03T04:33:05.834Z,3072.00
2018-06-03T04:33:57.228Z,3104.00
2018-06-03T04:35:06.151Z,3104.00
2018-06-03T04:36:06.743Z,3100.00
2018-06-03T04:36:58.316Z,3096.00
2018-06-03T04:38:07.431Z,3108.00
2018-06-03T04:38:58.927Z,3116.00
2018-06-03T04:39:59.051Z,3112.00
2018-06-03T04:40:59.251Z,3092.00
2018-06-03T04:41:59.493Z,3128.00
2018-06-03T04:42:59.756Z,3108.00
2018-06-03T04:43:59.970Z,3200.00
2018-06-03T04:45:00.229Z,3508.00
2018-06-03T04:46:00.489Z,3700.00
2018-06-03T04:47:00.708Z,3512.00
2018-06-03T04:48:00.983Z,3460.00
2018-06-03T04:49:01.216Z,3480.00
2018-06-03T04:50:01.446Z,3496.00
2018-06-03T04:51:01.670Z,3460.00
2018-06-03T04:52:01.901Z,3368.00
2018-06-03T04:53:11.014Z,3240.00
2018-06-03T04:54:02.423Z,3112.00
2018-06-03T04:55:11.422Z,3008.00
2018-06-03T04:56:03.091Z,3292.00
2018-06-03T04:57:03.272Z,3584.00
2018-06-03T04:58:12.305Z,3240.00
2018-06-03T04:59:04.060Z,3188.00
2018-06-03T05:00:13.144Z,3340.00
2018-06-03T05:01:04.515Z,3924.00
2018-06-03T05:02:04.761Z,4736.00
2018-06-03T05:03:13.929Z,4792.00
2018-06-03T05:04:14.343Z,5356.00
2018-06-03T05:05:05.651Z,5576.00
2018-06-03T05:06:05.787Z,5376.00
2018-06-03T05:07:14.827Z,5320.00
2018-06-03T05:08:15.180Z,5736.00
2018-06-03T05:09:15.596Z,6112.00
2018-06-03T05:10:16.219Z,6032.00
2018-06-03T05:11:07.455Z,6044.00
2018-06-03T05:12:16.562Z,5996.00
2018-06-03T05:13:08.022Z,6104.00
2018-06-03T05:14:08.240Z,6604.00
2018-06-03T05:15:08.414Z,7116.00
2018-06-03T05:16:08.653Z,7276.00
2018-06-03T05:17:08.897Z,7088.00
2018-06-03T05:18:09.137Z,7136.00
2018-06-03T05:19:09.392Z,6960.00
2018-06-03T05:20:09.624Z,6752.00
2018-06-03T05:21:09.842Z,7044.00
2018-06-03T05:22:10.122Z,7288.00
2018-06-03T05:23:10.328Z,7260.00
2018-06-03T05:24:10.539Z,7228.00
2018-06-03T05:25:19.624Z,7468.00
2018-06-03T05:26:11.379Z,7548.00
2018-06-03T05:27:11.568Z,7508.00
2018-06-03T05:28:11.755Z,7792.00
2018-06-03T05:29:11.976Z,8208.00
2018-06-03T05:30:12.216Z,8264.00
2018-06-03T05:31:12.460Z,8272.00
2018-06-03T05:32:21.396Z,8252.00
2018-06-03T05:33:13.087Z,8064.00
2018-06-03T05:34:13.374Z,7556.00
2018-06-03T05:35:13.548Z,7636.00
2018-06-03T05:36:13.757Z,7672.00
2018-06-03T05:37:14.032Z,7652.00
2018-06-03T05:38:14.313Z,7512.00
2018-06-03T05:39:23.374Z,7548.00
2018-06-03T05:40:14.759Z,7728.00
2018-06-03T05:41:14.996Z,7928.00
2018-06-03T05:42:15.233Z,8000.00
2018-06-03T05:43:15.464Z,7872.00
2018-06-03T05:44:15.709Z,7740.00
2018-06-03T05:45:15.959Z,7736.00
2018-06-03T05:46:16.179Z,7856.00
2018-06-03T05:47:16.431Z,8068.00
2018-06-03T05:48:16.651Z,8188.00
2018-06-03T05:49:16.928Z,8328.00
2018-06-03T05:50:17.130Z,8372.00
2018-06-03T05:51:17.364Z,8336.00
2018-06-03T05:52:26.428Z,8088.00
2018-06-03T05:53:18.095Z,7496.00
2018-06-03T05:54:18.302Z,7192.00
2018-06-03T05:55:18.472Z,7296.00
2018-06-03T05:56:18.722Z,7568.00
2018-06-03T05:57:18.961Z,7736.00
2018-06-03T05:58:19.197Z,7776.00
2018-06-03T05:59:27.421Z,7776.00
2018-06-03T06:00:19.905Z,7780.00
2018-06-03T06:01:20.113Z,7720.00
2018-06-03T06:02:20.326Z,7724.00
2018-06-03T06:03:20.554Z,7932.00
2018-06-03T06:04:20.851Z,8356.00
2018-06-03T06:05:21.044Z,8616.00
2018-06-03T06:06:30.098Z,8648.00
2018-06-03T06:07:31.533Z,8732.00
2018-06-03T06:08:30.985Z,8908.00
2018-06-03T06:09:22.404Z,9256.00
2018-06-03T06:10:22.574Z,9784.00
2018-06-03T06:11:32.591Z,10320.00
2018-06-03T06:12:23.284Z,10760.00
2018-06-03T06:13:23.469Z,11060.00
2018-06-03T06:14:23.596Z,11252.00
2018-06-03T06:15:23.822Z,11360.00
2018-06-03T06:16:33.903Z,11444.00
2018-06-03T06:17:24.342Z,11536.00
2018-06-03T06:18:24.573Z,11632.00
2018-06-03T06:19:24.845Z,11776.00
2018-06-03T06:20:25.055Z,11996.00
2018-06-03T06:21:25.286Z,12416.00
2018-06-03T06:22:25.551Z,12252.00
2018-06-03T06:23:25.781Z,12452.00
2018-06-03T06:24:26.030Z,12608.00
2018-06-03T06:25:26.280Z,12744.00
2018-06-03T06:26:26.536Z,12864.00
2018-06-03T06:27:26.759Z,12828.00
2018-06-03T06:28:27.001Z,12696.00
2018-06-03T06:29:27.246Z,12584.00
2018-06-03T06:30:27.483Z,12436.00
2018-06-03T06:31:27.710Z,12168.00
2018-06-03T06:32:27.979Z,11844.00
2018-06-03T06:33:28.186Z,11528.00
2018-06-03T06:34:28.423Z,11280.00
2018-06-03T06:35:28.692Z,10956.00
2018-06-03T06:36:28.984Z,11036.00
2018-06-03T06:37:29.159Z,11188.00
2018-06-03T06:38:29.423Z,11176.00
2018-06-03T06:39:29.635Z,11176.00
2018-06-03T06:40:29.895Z,11252.00
2018-06-03T06:41:30.155Z,11316.00
2018-06-03T06:42:30.381Z,11372.00
2018-06-03T06:43:30.626Z,11492.00
2018-06-03T06:44:30.850Z,11620.00
2018-06-03T06:45:31.107Z,11720.00
2018-06-03T06:46:40.262Z,11724.00
2018-06-03T06:47:31.779Z,11784.00
2018-06-03T06:48:39.727Z,12064.00
2018-06-03T06:49:40.022Z,12384.00
2018-06-03T06:50:40.323Z,12696.00
2018-06-03T06:51:40.694Z,12856.00
2018-06-03T06:52:41.991Z,12824.00
2018-06-03T06:53:41.467Z,12528.00
2018-06-03T06:54:42.760Z,12520.00
2018-06-03T06:55:42.161Z,12836.00
2018-06-03T06:56:43.477Z,12956.00
2018-06-03T06:57:42.917Z,13424.00
2018-06-03T06:58:43.207Z,13604.00
2018-06-03T06:59:44.571Z,13440.00
2018-06-03T07:00:43.989Z,13720.00
2018-06-03T07:01:44.244Z,13848.00
2018-06-03T07:02:45.548Z,13720.00
2018-06-03T07:03:45.938Z,13140.00
2018-06-03T07:04:45.301Z,12744.00
2018-06-03T07:05:45.607Z,12852.00
2018-06-03T07:06:38.314Z,13156.00
2018-06-03T07:07:47.182Z,13760.00
2018-06-03T07:08:38.934Z,14764.00
2018-06-03T07:09:46.833Z,16044.00
2018-06-03T07:10:47.101Z,17056.00
2018-06-03T07:11:47.561Z,17856.00
2018-06-03T07:12:40.198Z,18368.00
2018-06-03T07:13:50.063Z,18656.00
2018-06-03T07:14:49.382Z,18752.00
2018-06-03T07:15:48.747Z,18560.00
2018-06-03T07:16:49.180Z,19168.00
2018-06-03T07:17:41.759Z,20000.00
2018-06-03T07:18:49.685Z,20288.00
2018-06-03T07:19:51.096Z,20448.00
2018-06-03T07:20:51.391Z,17120.00
2018-06-03T07:21:50.787Z,16800.00
2018-06-03T07:22:52.045Z,15416.00
2018-06-03T07:23:52.493Z,15028.00
2018-06-03T07:24:52.009Z,14752.00
2018-06-03T07:25:53.373Z,14176.00
2018-06-03T07:26:53.500Z,14324.00
2018-06-03T07:27:52.886Z,14360.00
2018-06-03T07:28:54.193Z,14588.00
2018-06-03T07:29:54.670Z,15248.00
2018-06-03T07:30:46.129Z,16012.00
2018-06-03T07:31:46.360Z,16864.00
2018-06-03T07:32:46.528Z,17376.00
2018-06-03T07:33:46.798Z,15492.00
2018-06-03T07:34:47.025Z,15512.00
2018-06-03T07:35:47.296Z,15712.00
2018-06-03T07:36:56.266Z,16248.00
2018-06-03T07:37:48.008Z,17088.00
2018-06-03T07:38:56.988Z,18048.00
2018-06-03T07:39:48.658Z,19648.00
2018-06-03T07:40:48.963Z,20992.00
2018-06-03T07:41:57.897Z,23584.00
2018-06-03T07:42:49.626Z,24768.00
2018-06-03T07:43:58.575Z,23648.00
2018-06-03T07:44:59.871Z,24416.00
2018-06-03T07:45:50.476Z,24288.00
2018-06-03T07:46:59.529Z,21088.00
2018-06-03T07:47:59.868Z,21408.00
2018-06-03T07:49:00.339Z,20544.00
2018-06-03T07:49:51.979Z,19936.00
2018-06-03T07:51:00.881Z,16720.00
2018-06-03T07:51:52.607Z,16304.00
2018-06-03T07:53:00.565Z,19040.00
2018-06-03T07:54:01.907Z,19808.00
2018-06-03T07:55:02.274Z,20256.00
2018-06-03T07:56:01.807Z,20352.00
2018-06-03T07:57:04.010Z,20544.00
2018-06-03T07:58:02.318Z,20000.00
2018-06-03T07:59:02.721Z,19392.00
2018-06-03T08:00:04.034Z,19392.00
2018-06-03T08:01:04.315Z,18720.00
2018-06-03T08:02:03.790Z,18112.00
2018-06-03T08:03:04.063Z,17312.00
2018-06-03T08:04:05.314Z,16728.00
2018-06-03T08:05:05.716Z,16280.00
2018-06-03T08:06:05.145Z,16064.00
2018-06-03T08:07:06.435Z,15988.00
2018-06-03T08:08:05.912Z,16272.00
2018-06-03T08:09:06.228Z,16556.00
2018-06-03T08:10:06.488Z,16644.00
2018-06-03T08:11:06.829Z,16664.00
2018-06-03T08:12:07.195Z,17312.00
2018-06-03T08:13:08.470Z,17952.00
2018-06-03T08:14:08.900Z,18112.00
2018-06-03T08:15:09.305Z,18176.00
2018-06-03T08:16:09.764Z,18080.00
2018-06-03T08:17:10.143Z,18368.00
2018-06-03T08:18:10.524Z,18944.00
2018-06-03T08:19:10.926Z,19968.00
2018-06-03T08:20:11.298Z,21152.00
2018-06-03T08:21:11.672Z,20608.00
2018-06-03T08:22:12.123Z,18048.00
2018-06-03T08:23:12.485Z,17664.00
2018-06-03T08:24:12.891Z,17632.00
2018-06-03T08:25:12.225Z,17728.00
2018-06-03T08:26:13.520Z,17888.00
2018-06-03T08:27:13.987Z,18112.00
2018-06-03T08:28:14.351Z,18304.00
2018-06-03T08:29:06.057Z,18400.00
2018-06-03T08:30:14.019Z,18464.00
2018-06-03T08:31:14.396Z,18720.00
2018-06-03T08:32:15.638Z,20064.00
2018-06-03T08:33:15.991Z,22240.00
2018-06-03T08:34:16.408Z,24096.00
2018-06-03T08:35:16.808Z,26368.00
2018-06-03T08:36:17.226Z,28064.00
2018-06-03T08:37:17.623Z,28096.00
2018-06-03T08:38:17.940Z,29312.00
2018-06-03T08:39:18.525Z,29760.00
2018-06-03T08:40:18.811Z,29760.00
2018-06-03T08:41:19.157Z,31680.00
2018-06-03T08:42:18.518Z,34432.00
2018-06-03T08:43:18.854Z,26848.00
2018-06-03T08:44:20.210Z,33248.00
2018-06-03T08:45:20.578Z,33280.00
2018-06-03T08:46:19.974Z,33728.00
2018-06-03T08:47:20.292Z,34080.00
2018-06-03T08:48:20.668Z,31680.00
2018-06-03T08:49:21.008Z,35808.00
2018-06-03T08:50:22.345Z,34880.00
2018-06-03T08:51:21.663Z,35936.00
2018-06-03T08:52:22.967Z,38272.00
2018-06-03T08:53:23.365Z,40128.00
2018-06-03T08:54:22.763Z,41248.00
2018-06-03T08:55:24.085Z,41824.00
2018-06-03T08:56:24.529Z,40736.00
2018-06-03T08:57:24.888Z,39264.00
2018-06-03T08:58:24.290Z,39904.00
2018-06-03T08:59:25.632Z,40832.00
2018-06-03T09:00:25.167Z,42944.00
2018-06-03T09:01:26.339Z,43328.00
2018-06-03T09:02:26.670Z,40864.00
2018-06-03T09:03:27.107Z,42592.00
2018-06-03T09:04:27.459Z,37344.00
2018-06-03T09:05:26.891Z,29792.00
2018-06-03T09:06:27.206Z,43200.00
2018-06-03T09:07:29.520Z,44512.00
2018-06-03T09:08:27.840Z,44224.00
2018-06-03T09:09:30.096Z,22240.00
2018-06-03T09:10:29.287Z,28224.00
2018-06-03T09:11:28.729Z,32800.00
2018-06-03T09:12:29.071Z,47776.00
2018-06-03T09:13:30.373Z,49312.00
2018-06-03T09:14:29.784Z,48448.00
2018-06-03T09:15:30.088Z,44544.00
2018-06-03T09:16:31.430Z,24032.00
2018-06-03T09:17:23.184Z,49824.00
2018-06-03T09:18:23.406Z,48192.00
2018-06-03T09:19:32.332Z,47360.00
2018-06-03T09:20:31.714Z,47936.00
2018-06-03T09:21:32.072Z,51520.00
2018-06-03T09:22:33.376Z,53792.00
2018-06-03T09:23:32.752Z,40608.00
2018-06-03T09:24:33.062Z,53120.00
2018-06-03T09:25:33.394Z,54720.00
2018-06-03T09:26:33.714Z,56224.00
2018-06-03T09:27:34.040Z,52224.00
2018-06-03T09:28:26.667Z,36992.00
2018-06-03T09:29:35.634Z,59936.00
2018-06-03T09:30:27.343Z,59776.00
2018-06-03T09:31:35.246Z,58688.00
2018-06-03T09:32:35.638Z,58176.00
2018-06-03T09:33:36.945Z,59168.00
2018-06-03T09:34:36.354Z,59040.00
2018-06-03T09:35:36.693Z,60128.00
2018-06-03T09:36:36.969Z,59968.00
2018-06-03T09:37:37.324Z,60800.00
2018-06-03T09:38:37.637Z,61120.00
2018-06-03T09:39:37.944Z,62752.00
2018-06-03T09:40:30.592Z,62496.00
2018-06-03T09:41:39.486Z,61984.00
2018-06-03T09:42:38.974Z,62496.00
2018-06-03T09:43:39.288Z,64704.00
2018-06-03T09:44:31.980Z,67008.00
2018-06-03T09:45:32.174Z,64704.00
2018-06-03T09:46:32.421Z,64320.00
2018-06-03T09:47:41.375Z,66528.00
2018-06-03T09:48:41.773Z,68224.00
2018-06-03T09:49:33.493Z,28992.00
2018-06-03T09:50:33.746Z,29472.00
2018-06-03T09:51:34.010Z,28576.00
2018-06-03T09:52:34.251Z,29408.00
2018-06-03T09:53:34.501Z,56512.00
2018-06-03T09:54:34.754Z,66912.00
2018-06-03T09:55:42.716Z,65184.00
2018-06-03T09:56:45.039Z,31616.00
2018-06-03T09:57:35.624Z,21376.00
2018-06-03T09:58:35.874Z,22304.00
2018-06-03T09:59:36.136Z,43744.00
2018-06-03T10:00:36.373Z,22592.00
2018-06-03T10:01:36.628Z,23968.00
2018-06-03T10:02:44.542Z,28352.00
2018-06-03T10:03:37.269Z,26336.00
2018-06-03T10:04:37.445Z,24672.00
2018-06-03T10:05:45.378Z,25120.00
2018-06-03T10:06:47.740Z,26560.00
2018-06-03T10:07:46.004Z,25632.00
2018-06-03T10:08:46.304Z,25216.00
2018-06-03T10:09:46.636Z,26400.00
2018-06-03T10:10:46.963Z,25632.00
2018-06-03T10:11:47.247Z,26080.00
2018-06-03T10:12:48.621Z,25728.00
2018-06-03T10:13:48.956Z,29568.00
2018-06-03T10:14:48.352Z,57536.00
2018-06-03T10:15:48.741Z,39168.00
2018-06-03T10:16:49.057Z,64224.00
2018-06-03T10:17:50.508Z,73152.00
2018-06-03T10:18:49.834Z,75296.00
2018-06-03T10:19:50.105Z,74304.00
2018-06-03T10:20:50.486Z,38048.00
2018-06-03T10:21:51.771Z,64704.00
2018-06-03T10:22:51.189Z,44288.00
2018-06-03T10:23:43.798Z,29568.00
2018-06-03T10:24:44.045Z,29248.00
2018-06-03T10:25:44.299Z,30080.00
2018-06-03T10:26:44.552Z,34688.00
2018-06-03T10:27:44.809Z,64352.00
2018-06-03T10:28:45.093Z,27296.00
2018-06-03T10:29:45.305Z,26368.00
2018-06-03T10:30:45.546Z,26368.00
2018-06-03T10:31:45.801Z,27072.00
2018-06-03T10:32:46.051Z,30560.00
2018-06-03T10:33:46.309Z,85280.00
2018-06-03T10:34:46.564Z,86624.00
2018-06-03T10:35:46.824Z,30304.00
2018-06-03T10:36:47.076Z,27328.00
2018-06-03T10:37:47.331Z,28128.00
2018-06-03T10:38:47.588Z,34336.00
2018-06-03T10:39:47.843Z,81536.00
2018-06-03T10:40:48.102Z,77152.00
2018-06-03T10:41:48.358Z,76064.00
2018-06-03T10:42:48.611Z,71072.00
2018-06-03T10:43:48.962Z,80896.00
2018-06-03T10:44:49.123Z,80960.00
2018-06-03T10:45:49.379Z,80224.00
2018-06-03T10:46:49.634Z,76608.00
2018-06-03T10:47:49.893Z,76768.00
2018-06-03T10:48:50.149Z,77632.00
2018-06-03T10:49:50.404Z,74528.00
2018-06-03T10:50:50.664Z,73600.00
2018-06-03T10:51:50.918Z,78816.00
2018-06-03T10:52:51.175Z,79808.00
2018-06-03T10:53:51.432Z,79968.00
2018-06-03T10:54:51.692Z,80576.00
2018-06-03T10:55:51.948Z,81024.00
2018-06-03T10:56:52.202Z,68096.00
2018-06-03T10:57:52.463Z,85632.00
2018-06-03T10:58:52.722Z,82848.00
2018-06-03T10:59:52.989Z,33568.00
2018-06-03T11:00:53.241Z,76544.00
2018-06-03T11:01:53.499Z,82752.00
2018-06-03T11:02:53.758Z,73376.00
2018-06-03T11:03:54.019Z,80768.00
2018-06-03T11:04:54.278Z,76448.00
2018-06-03T11:05:54.536Z,80480.00
2018-06-03T11:06:54.796Z,79968.00
2018-06-03T11:07:55.056Z,84192.00
2018-06-03T11:08:55.314Z,60032.00
2018-06-03T11:09:55.572Z,39296.00
2018-06-03T11:10:55.829Z,36000.00
2018-06-03T11:11:56.091Z,45312.00
2018-06-03T11:12:56.348Z,69920.00
2018-06-03T11:13:56.725Z,79520.00
2018-06-03T11:14:56.971Z,75744.00
2018-06-03T11:15:57.225Z,76896.00
2018-06-03T11:16:57.495Z,78592.00
2018-06-03T11:17:57.740Z,81120.00
2018-06-03T11:18:58.070Z,84608.00
2018-06-03T11:19:58.253Z,63552.00
2018-06-03T11:20:58.506Z,70400.00
2018-06-03T11:21:58.761Z,45760.00
2018-06-03T11:22:59.017Z,27712.00
2018-06-03T11:23:59.276Z,26976.00
2018-06-03T11:24:59.537Z,21824.00
2018-06-03T11:25:59.808Z,22464.00
2018-06-03T11:27:00.052Z,24096.00
2018-06-03T11:28:00.317Z,23648.00
2018-06-03T11:29:00.638Z,25056.00
2018-06-03T11:30:00.873Z,27648.00
2018-06-03T11:31:01.147Z,31520.00
2018-06-03T11:32:01.378Z,35264.00
2018-06-03T11:33:01.637Z,37632.00
2018-06-03T11:34:01.883Z,81152.00
2018-06-03T11:35:02.251Z,81472.00
2018-06-03T11:36:02.553Z,83616.00
2018-06-03T11:37:02.874Z,86944.00
2018-06-03T11:38:03.123Z,87264.00
2018-06-03T11:39:03.386Z,85600.00
2018-06-03T11:40:03.646Z,85568.00
2018-06-03T11:41:03.901Z,85824.00
2018-06-03T11:42:04.210Z,83072.00
2018-06-03T11:43:04.409Z,81216.00
2018-06-03T11:44:04.689Z,84000.00
2018-06-03T11:45:04.941Z,85248.00
2018-06-03T11:46:05.199Z,38528.00
2018-06-03T11:47:05.495Z,27296.00
2018-06-03T11:48:05.718Z,26336.00
2018-06-03T11:49:05.963Z,24512.00
2018-06-03T11:50:06.239Z,26752.00
2018-06-03T11:51:06.556Z,26208.00
2018-06-03T11:52:06.801Z,24608.00
2018-06-03T11:53:07.051Z,25344.00
2018-06-03T11:54:07.326Z,25568.00
2018-06-03T11:55:07.574Z,24672.00
2018-06-03T11:56:07.815Z,24832.00
2018-06-03T11:57:08.082Z,24704.00
2018-06-03T11:58:08.337Z,28256.00
2018-06-03T11:59:08.660Z,28864.00
2018-06-03T12:00:08.871Z,48224.00
2018-06-03T12:01:09.124Z,81888.00
2018-06-03T12:02:09.380Z,93696.00
2018-06-03T12:03:09.629Z,43264.00
2018-06-03T12:04:09.892Z,45216.00
2018-06-03T12:05:10.143Z,87456.00
2018-06-03T12:06:10.489Z,93504.00
2018-06-03T12:07:10.702Z,94016.00
2018-06-03T12:08:10.896Z,92064.00
2018-06-03T12:09:11.149Z,90080.00
2018-06-03T12:10:11.406Z,90048.00
2018-06-03T12:11:11.658Z,93792.00
2018-06-03T12:12:11.916Z,95168.00
2018-06-03T12:13:12.171Z,92896.00
2018-06-03T12:14:12.429Z,86400.00
2018-06-03T12:15:12.700Z,86752.00
2018-06-03T12:16:13.006Z,88608.00
2018-06-03T12:17:13.247Z,85888.00
2018-06-03T12:18:13.556Z,81472.00
2018-06-03T12:19:13.801Z,83136.00
2018-06-03T12:20:14.061Z,85376.00
2018-06-03T12:21:14.325Z,83584.00
2018-06-03T12:22:14.568Z,83680.00
2018-06-03T12:23:14.827Z,85696.00
2018-06-03T12:24:15.091Z,85536.00
2018-06-03T12:25:15.344Z,86048.00
2018-06-03T12:26:15.608Z,68864.00
2018-06-03T12:27:15.857Z,39200.00
2018-06-03T12:28:16.121Z,38752.00
2018-06-03T12:29:16.376Z,90016.00
2018-06-03T12:30:16.636Z,27872.00
2018-06-03T12:31:16.894Z,26272.00
2018-06-03T12:32:17.148Z,29760.00
2018-06-03T12:33:17.408Z,28352.00
2018-06-03T12:34:17.673Z,28928.00
2018-06-03T12:35:17.946Z,21792.00
2018-06-03T12:36:18.211Z,24704.00
2018-06-03T12:37:18.418Z,27200.00
2018-06-03T12:38:18.669Z,27808.00
2018-06-03T12:39:18.924Z,88864.00
2018-06-03T12:40:19.178Z,84736.00
2018-06-03T12:41:19.434Z,83328.00
2018-06-03T12:42:19.693Z,86816.00
2018-06-03T12:43:19.948Z,89504.00
2018-06-03T12:44:20.206Z,85888.00
2018-06-03T12:45:20.463Z,82912.00
2018-06-03T12:46:20.718Z,85824.00
2018-06-03T12:47:21.024Z,88576.00
2018-06-03T12:48:21.341Z,88160.00
2018-06-03T12:49:21.476Z,86624.00
2018-06-03T12:50:21.713Z,83168.00
2018-06-03T12:51:21.970Z,84256.00
2018-06-03T12:52:22.242Z,84608.00
2018-06-03T12:53:22.482Z,84576.00
2018-06-03T12:54:22.733Z,85024.00
2018-06-03T12:55:22.985Z,85632.00
2018-06-03T12:56:23.291Z,84000.00
2018-06-03T12:57:23.495Z,82336.00
2018-06-03T12:58:23.763Z,80064.00
2018-06-03T12:59:24.027Z,79808.00
2018-06-03T13:00:24.269Z,83200.00
2018-06-03T13:01:32.225Z,83232.00
2018-06-03T13:02:24.886Z,81664.00
2018-06-03T13:03:25.140Z,82048.00
2018-06-03T13:04:25.401Z,84352.00
2018-06-03T13:05:25.655Z,82976.00
2018-06-03T13:06:26.020Z,83360.00
2018-06-03T13:07:26.168Z,82848.00
2018-06-03T13:08:26.436Z,82816.00
2018-06-03T13:09:26.752Z,71360.00
2018-06-03T13:10:26.971Z,82144.00
2018-06-03T13:11:27.412Z,84128.00
2018-06-03T13:12:36.244Z,35808.00
2018-06-03T13:13:27.799Z,81472.00
2018-06-03T13:14:36.765Z,78816.00
2018-06-03T13:15:39.125Z,76384.00
2018-06-03T13:16:38.765Z,79232.00
2018-06-03T13:17:29.050Z,57472.00
2018-06-03T13:18:38.201Z,37568.00
2018-06-03T13:19:37.438Z,23648.00
2018-06-03T13:20:30.043Z,23200.00
2018-06-03T13:21:30.312Z,22784.00
2018-06-03T13:22:30.563Z,23008.00
2018-06-03T13:23:30.826Z,24064.00
2018-06-03T13:24:31.083Z,28160.00
2018-06-03T13:25:39.968Z,57280.00
2018-06-03T13:26:31.747Z,28224.00
2018-06-03T13:27:40.944Z,41568.00
2018-06-03T13:28:32.315Z,23712.00
2018-06-03T13:29:41.396Z,22592.00
2018-06-03T13:30:32.746Z,22560.00
2018-06-03T13:31:33.005Z,23616.00
2018-06-03T13:32:33.261Z,32352.00
2018-06-03T13:33:33.520Z,71648.00
2018-06-03T13:34:33.777Z,56672.00
2018-06-03T13:35:34.037Z,33824.00
2018-06-03T13:36:34.300Z,39136.00
2018-06-03T13:37:34.563Z,37728.00
2018-06-03T13:38:34.791Z,57856.00
2018-06-03T13:39:35.038Z,68288.00
2018-06-03T13:40:35.282Z,69248.00
2018-06-03T13:41:35.545Z,63360.00
2018-06-03T13:42:35.804Z,69952.00
2018-06-03T13:43:36.064Z,68992.00
2018-06-03T13:44:36.317Z,69184.00
2018-06-03T13:45:36.570Z,68288.00
2018-06-03T13:46:36.834Z,68384.00
2018-06-03T13:47:37.076Z,67680.00
2018-06-03T13:48:37.328Z,68544.00
2018-06-03T13:49:37.585Z,69408.00
2018-06-03T13:50:37.842Z,66976.00
2018-06-03T13:51:38.102Z,66240.00
2018-06-03T13:52:38.359Z,62304.00
2018-06-03T13:53:38.634Z,62272.00
2018-06-03T13:54:38.876Z,21920.00
2018-06-03T13:55:39.102Z,64768.00
2018-06-03T13:56:39.356Z,52704.00
2018-06-03T13:57:39.617Z,24448.00
2018-06-03T13:58:39.875Z,31232.00
2018-06-03T13:59:40.131Z,18176.00
2018-06-03T14:00:40.381Z,17660.00
2018-06-03T14:01:40.637Z,19584.00
2018-06-03T14:02:40.901Z,17004.00
2018-06-03T14:03:41.144Z,15116.00
2018-06-03T14:04:41.383Z,14476.00
2018-06-03T14:05:41.639Z,14572.00
2018-06-03T14:06:41.895Z,14740.00
2018-06-03T14:07:42.151Z,15484.00
2018-06-03T14:08:42.434Z,15920.00
2018-06-03T14:09:52.357Z,16528.00
2018-06-03T14:10:50.718Z,16876.00
2018-06-03T14:11:43.282Z,17172.00
2018-06-03T14:12:43.573Z,16716.00
2018-06-03T14:13:44.373Z,16172.00
2018-06-03T14:14:44.026Z,15684.00
2018-06-03T14:15:44.259Z,15660.00
2018-06-03T14:16:44.506Z,16488.00
2018-06-03T14:17:44.763Z,17120.00
2018-06-03T14:18:45.021Z,17584.00
2018-06-03T14:19:45.264Z,18044.00
2018-06-03T14:20:45.516Z,17244.00
2018-06-03T14:21:45.755Z,16256.00